sensor_id;sensor_type;location;lat;lon;timestamp;P1;durP1;ratioP1;P2;durP2;ratioP2
37131;SDS011;23035;50.032;21.978;2023-07-28T00:00:10;7.22;;;4.30;;
37131;SDS011;23035;50.032;21.978;2023-07-28T00:05:36;7.75;;;4.55;;
37131;SDS011;23035;50.032;21.978;2023-07-28T00:10:41;7.47;;;4.07;;
37131;SDS011;23035;50.032;21.978;2023-07-28T00:20:49;11.10;;;4.85;;
37131;SDS011;23035;50.032;21.978;2023-07-28T00:25:55;9.63;;;4.60;;
37131;SDS011;23035;50.032;21.978;2023-07-28T00:30:59;7.65;;;4.05;;
37131;SDS011;23035;50.032;21.978;2023-07-28T00:36:03;11.40;;;4.78;;
37131;SDS011;23035;50.032;21.978;2023-07-28T00:41:09;13.02;;;4.38;;
37131;SDS011;23035;50.032;21.978;2023-07-28T00:46:13;10.93;;;4.50;;
37131;SDS011;23035;50.032;21.978;2023-07-28T00:51:18;7.90;;;4.13;;
37131;SDS011;23035;50.032;21.978;2023-07-28T00:56:23;8.77;;;4.60;;
37131;SDS011;23035;50.032;21.978;2023-07-28T01:01:28;8.27;;;4.00;;
37131;SDS011;23035;50.032;21.978;2023-07-28T01:06:35;7.95;;;3.88;;
37131;SDS011;23035;50.032;21.978;2023-07-28T01:11:55;9.70;;;3.95;;
37131;SDS011;23035;50.032;21.978;2023-07-28T01:17:00;8.23;;;4.22;;
37131;SDS011;23035;50.032;21.978;2023-07-28T01:22:10;8.63;;;4.35;;
37131;SDS011;23035;50.032;21.978;2023-07-28T01:27:31;8.67;;;4.03;;
37131;SDS011;23035;50.032;21.978;2023-07-28T01:37:40;5.43;;;3.47;;
37131;SDS011;23035;50.032;21.978;2023-07-28T01:42:45;4.50;;;3.30;;
37131;SDS011;23035;50.032;21.978;2023-07-28T01:47:49;5.18;;;3.33;;
37131;SDS011;23035;50.032;21.978;2023-07-28T01:52:54;6.53;;;3.20;;
37131;SDS011;23035;50.032;21.978;2023-07-28T01:58:00;9.60;;;3.00;;
37131;SDS011;23035;50.032;21.978;2023-07-28T02:03:05;5.50;;;3.22;;
37131;SDS011;23035;50.032;21.978;2023-07-28T02:08:10;7.35;;;3.15;;
37131;SDS011;23035;50.032;21.978;2023-07-28T02:13:15;6.72;;;2.83;;
37131;SDS011;23035;50.032;21.978;2023-07-28T02:18:19;6.88;;;3.47;;
37131;SDS011;23035;50.032;21.978;2023-07-28T02:23:23;7.35;;;3.58;;
37131;SDS011;23035;50.032;21.978;2023-07-28T02:28:29;7.25;;;3.42;;
37131;SDS011;23035;50.032;21.978;2023-07-28T02:33:33;12.25;;;4.93;;
37131;SDS011;23035;50.032;21.978;2023-07-28T02:43:44;7.85;;;3.35;;
37131;SDS011;23035;50.032;21.978;2023-07-28T02:48:48;7.25;;;3.30;;
37131;SDS011;23035;50.032;21.978;2023-07-28T02:53:52;11.15;;;3.50;;
37131;SDS011;23035;50.032;21.978;2023-07-28T02:58:57;7.43;;;3.28;;
37131;SDS011;23035;50.032;21.978;2023-07-28T03:04:02;8.48;;;3.35;;
37131;SDS011;23035;50.032;21.978;2023-07-28T03:09:30;6.57;;;3.17;;
37131;SDS011;23035;50.032;21.978;2023-07-28T03:14:40;4.20;;;3.08;;
37131;SDS011;23035;50.032;21.978;2023-07-28T03:19:46;5.93;;;2.80;;
37131;SDS011;23035;50.032;21.978;2023-07-28T03:24:50;10.20;;;3.13;;
37131;SDS011;23035;50.032;21.978;2023-07-28T03:29:56;10.57;;;3.10;;
37131;SDS011;23035;50.032;21.978;2023-07-28T03:35:00;6.50;;;2.78;;
37131;SDS011;23035;50.032;21.978;2023-07-28T03:40:06;4.30;;;2.92;;
37131;SDS011;23035;50.032;21.978;2023-07-28T03:45:21;11.70;;;3.25;;
37131;SDS011;23035;50.032;21.978;2023-07-28T03:50:25;10.57;;;2.65;;
37131;SDS011;23035;50.032;21.978;2023-07-28T03:55:30;10.47;;;3.00;;
37131;SDS011;23035;50.032;21.978;2023-07-28T04:00:35;10.13;;;3.47;;
37131;SDS011;23035;50.032;21.978;2023-07-28T04:05:39;5.65;;;2.92;;
37131;SDS011;23035;50.032;21.978;2023-07-28T04:10:43;10.82;;;3.08;;
37131;SDS011;23035;50.032;21.978;2023-07-28T04:15:48;8.98;;;2.90;;
37131;SDS011;23035;50.032;21.978;2023-07-28T04:25:56;8.95;;;2.88;;
37131;SDS011;23035;50.032;21.978;2023-07-28T04:31:05;3.42;;;2.17;;
37131;SDS011;23035;50.032;21.978;2023-07-28T04:36:30;8.50;;;2.88;;
37131;SDS011;23035;50.032;21.978;2023-07-28T04:41:38;10.48;;;3.40;;
37131;SDS011;23035;50.032;21.978;2023-07-28T04:46:43;5.57;;;2.80;;
37131;SDS011;23035;50.032;21.978;2023-07-28T04:51:50;6.15;;;2.75;;
37131;SDS011;23035;50.032;21.978;2023-07-28T04:57:11;4.90;;;2.75;;
37131;SDS011;23035;50.032;21.978;2023-07-28T05:02:19;15.32;;;3.15;;
37131;SDS011;23035;50.032;21.978;2023-07-28T05:07:26;8.73;;;3.38;;
37131;SDS011;23035;50.032;21.978;2023-07-28T05:12:31;8.88;;;3.83;;
37131;SDS011;23035;50.032;21.978;2023-07-28T05:17:36;8.60;;;3.17;;
37131;SDS011;23035;50.032;21.978;2023-07-28T05:23:06;9.50;;;2.80;;
37131;SDS011;23035;50.032;21.978;2023-07-28T05:28:10;12.00;;;3.00;;
37131;SDS011;23035;50.032;21.978;2023-07-28T05:33:18;5.22;;;2.88;;
37131;SDS011;23035;50.032;21.978;2023-07-28T05:38:25;4.85;;;2.90;;
37131;SDS011;23035;50.032;21.978;2023-07-28T05:43:30;7.20;;;2.80;;
37131;SDS011;23035;50.032;21.978;2023-07-28T05:48:37;9.43;;;2.75;;
37131;SDS011;23035;50.032;21.978;2023-07-28T05:53:41;3.47;;;2.50;;
37131;SDS011;23035;50.032;21.978;2023-07-28T05:58:45;5.93;;;2.95;;
37131;SDS011;23035;50.032;21.978;2023-07-28T06:03:58;3.97;;;2.60;;
37131;SDS011;23035;50.032;21.978;2023-07-28T06:09:25;8.95;;;2.65;;
37131;SDS011;23035;50.032;21.978;2023-07-28T06:14:30;4.35;;;2.67;;
37131;SDS011;23035;50.032;21.978;2023-07-28T06:19:36;6.07;;;2.75;;
37131;SDS011;23035;50.032;21.978;2023-07-28T06:29:44;4.32;;;3.00;;
37131;SDS011;23035;50.032;21.978;2023-07-28T06:34:50;7.20;;;2.80;;
37131;SDS011;23035;50.032;21.978;2023-07-28T06:39:55;5.30;;;2.50;;
37131;SDS011;23035;50.032;21.978;2023-07-28T06:44:59;13.88;;;3.88;;
37131;SDS011;23035;50.032;21.978;2023-07-28T06:50:05;5.45;;;3.00;;
37131;SDS011;23035;50.032;21.978;2023-07-28T06:55:10;7.22;;;2.92;;
37131;SDS011;23035;50.032;21.978;2023-07-28T07:00:15;6.03;;;2.70;;
37131;SDS011;23035;50.032;21.978;2023-07-28T07:05:22;5.82;;;2.65;;
37131;SDS011;23035;50.032;21.978;2023-07-28T07:10:26;6.85;;;2.80;;
37131;SDS011;23035;50.032;21.978;2023-07-28T07:15:30;4.28;;;2.67;;
37131;SDS011;23035;50.032;21.978;2023-07-28T07:20:38;4.80;;;2.88;;
37131;SDS011;23035;50.032;21.978;2023-07-28T07:30:46;4.70;;;2.63;;
37131;SDS011;23035;50.032;21.978;2023-07-28T07:35:52;5.68;;;3.10;;
37131;SDS011;23035;50.032;21.978;2023-07-28T07:45:59;7.97;;;2.67;;
37131;SDS011;23035;50.032;21.978;2023-07-28T07:51:05;8.27;;;2.92;;
37131;SDS011;23035;50.032;21.978;2023-07-28T07:56:10;7.40;;;2.65;;
37131;SDS011;23035;50.032;21.978;2023-07-28T08:01:14;3.53;;;2.53;;
37131;SDS011;23035;50.032;21.978;2023-07-28T08:06:20;8.57;;;2.67;;
37131;SDS011;23035;50.032;21.978;2023-07-28T08:11:24;4.88;;;2.45;;
37131;SDS011;23035;50.032;21.978;2023-07-28T08:16:29;4.47;;;2.67;;
37131;SDS011;23035;50.032;21.978;2023-07-28T08:21:36;4.45;;;2.38;;
37131;SDS011;23035;50.032;21.978;2023-07-28T08:26:40;7.80;;;2.75;;
37131;SDS011;23035;50.032;21.978;2023-07-28T08:31:44;5.82;;;2.85;;
37131;SDS011;23035;50.032;21.978;2023-07-28T08:36:49;6.00;;;2.50;;
37131;SDS011;23035;50.032;21.978;2023-07-28T08:41:59;4.22;;;2.65;;
37131;SDS011;23035;50.032;21.978;2023-07-28T08:47:04;8.40;;;3.05;;
37131;SDS011;23035;50.032;21.978;2023-07-28T08:52:10;3.77;;;2.40;;
37131;SDS011;23035;50.032;21.978;2023-07-28T08:57:18;7.60;;;3.00;;
37131;SDS011;23035;50.032;21.978;2023-07-28T09:02:23;6.37;;;2.70;;
37131;SDS011;23035;50.032;21.978;2023-07-28T09:07:30;4.27;;;2.97;;
37131;SDS011;23035;50.032;21.978;2023-07-28T09:12:44;6.10;;;3.13;;
37131;SDS011;23035;50.032;21.978;2023-07-28T09:17:48;4.82;;;2.72;;
37131;SDS011;23035;50.032;21.978;2023-07-28T09:22:53;5.18;;;2.90;;
37131;SDS011;23035;50.032;21.978;2023-07-28T09:27:57;10.10;;;7.15;;
37131;SDS011;23035;50.032;21.978;2023-07-28T09:33:02;9.85;;;8.70;;
37131;SDS011;23035;50.032;21.978;2023-07-28T09:38:07;8.60;;;6.43;;
37131;SDS011;23035;50.032;21.978;2023-07-28T09:43:12;8.90;;;6.30;;
37131;SDS011;23035;50.032;21.978;2023-07-28T09:48:16;7.00;;;6.03;;
37131;SDS011;23035;50.032;21.978;2023-07-28T09:53:23;8.02;;;5.72;;
37131;SDS011;23035;50.032;21.978;2023-07-28T09:58:32;6.78;;;4.85;;
37131;SDS011;23035;50.032;21.978;2023-07-28T10:03:40;6.38;;;5.70;;
37131;SDS011;23035;50.032;21.978;2023-07-28T10:08:45;8.38;;;5.68;;
37131;SDS011;23035;50.032;21.978;2023-07-28T10:13:50;7.20;;;6.50;;
37131;SDS011;23035;50.032;21.978;2023-07-28T10:18:54;9.05;;;6.78;;
37131;SDS011;23035;50.032;21.978;2023-07-28T10:24:00;11.30;;;6.15;;
37131;SDS011;23035;50.032;21.978;2023-07-28T10:29:08;6.35;;;5.32;;
37131;SDS011;23035;50.032;21.978;2023-07-28T10:34:15;8.68;;;7.68;;
37131;SDS011;23035;50.032;21.978;2023-07-28T10:39:20;16.85;;;9.63;;
37131;SDS011;23035;50.032;21.978;2023-07-28T10:44:24;6.47;;;5.25;;
37131;SDS011;23035;50.032;21.978;2023-07-28T10:49:29;7.23;;;4.80;;
37131;SDS011;23035;50.032;21.978;2023-07-28T10:54:38;7.28;;;4.20;;
37131;SDS011;23035;50.032;21.978;2023-07-28T10:59:42;5.70;;;4.45;;
37131;SDS011;23035;50.032;21.978;2023-07-28T11:04:47;5.45;;;4.72;;
37131;SDS011;23035;50.032;21.978;2023-07-28T11:09:52;5.73;;;4.20;;
37131;SDS011;23035;50.032;21.978;2023-07-28T11:14:57;4.72;;;3.20;;
37131;SDS011;23035;50.032;21.978;2023-07-28T11:20:01;7.05;;;3.05;;
37131;SDS011;23035;50.032;21.978;2023-07-28T11:25:07;9.33;;;3.50;;
37131;SDS011;23035;50.032;21.978;2023-07-28T11:30:13;5.00;;;3.38;;
37131;SDS011;23035;50.032;21.978;2023-07-28T11:35:18;5.13;;;3.60;;
37131;SDS011;23035;50.032;21.978;2023-07-28T11:40:25;6.57;;;5.47;;
37131;SDS011;23035;50.032;21.978;2023-07-28T11:45:29;12.13;;;7.25;;
37131;SDS011;23035;50.032;21.978;2023-07-28T11:50:35;8.43;;;6.32;;
37131;SDS011;23035;50.032;21.978;2023-07-28T11:55:41;7.38;;;6.03;;
37131;SDS011;23035;50.032;21.978;2023-07-28T12:00:45;7.20;;;4.75;;
37131;SDS011;23035;50.032;21.978;2023-07-28T12:06:05;8.40;;;4.53;;
37131;SDS011;23035;50.032;21.978;2023-07-28T12:11:16;11.02;;;6.38;;
37131;SDS011;23035;50.032;21.978;2023-07-28T12:16:39;6.20;;;4.28;;
37131;SDS011;23035;50.032;21.978;2023-07-28T12:21:47;8.75;;;4.45;;
37131;SDS011;23035;50.032;21.978;2023-07-28T12:26:52;7.78;;;5.25;;
37131;SDS011;23035;50.032;21.978;2023-07-28T12:31:57;7.80;;;3.70;;
37131;SDS011;23035;50.032;21.978;2023-07-28T12:37:04;7.22;;;4.40;;
37131;SDS011;23035;50.032;21.978;2023-07-28T12:42:14;8.85;;;4.13;;
37131;SDS011;23035;50.032;21.978;2023-07-28T12:47:38;8.60;;;4.63;;
37131;SDS011;23035;50.032;21.978;2023-07-28T12:52:42;7.80;;;3.42;;
37131;SDS011;23035;50.032;21.978;2023-07-28T12:57:50;8.10;;;3.50;;
37131;SDS011;23035;50.032;21.978;2023-07-28T13:02:54;7.35;;;3.58;;
37131;SDS011;23035;50.032;21.978;2023-07-28T13:07:59;8.63;;;3.43;;
37131;SDS011;23035;50.032;21.978;2023-07-28T13:13:07;9.38;;;3.40;;
37131;SDS011;23035;50.032;21.978;2023-07-28T13:18:14;4.68;;;3.30;;
37131;SDS011;23035;50.032;21.978;2023-07-28T13:23:17;7.53;;;3.53;;
37131;SDS011;23035;50.032;21.978;2023-07-28T13:28:23;7.32;;;3.22;;
37131;SDS011;23035;50.032;21.978;2023-07-28T13:33:28;5.10;;;3.17;;
37131;SDS011;23035;50.032;21.978;2023-07-28T13:38:32;10.65;;;3.53;;
37131;SDS011;23035;50.032;21.978;2023-07-28T13:43:38;7.03;;;3.50;;
37131;SDS011;23035;50.032;21.978;2023-07-28T13:48:43;6.18;;;3.13;;
37131;SDS011;23035;50.032;21.978;2023-07-28T13:53:55;7.28;;;3.45;;
37131;SDS011;23035;50.032;21.978;2023-07-28T13:59:03;4.75;;;3.28;;
37131;SDS011;23035;50.032;21.978;2023-07-28T14:04:07;12.00;;;4.07;;
37131;SDS011;23035;50.032;21.978;2023-07-28T14:09:11;5.75;;;3.55;;
37131;SDS011;23035;50.032;21.978;2023-07-28T14:14:17;7.53;;;2.80;;
37131;SDS011;23035;50.032;21.978;2023-07-28T14:24:25;7.88;;;3.05;;
37131;SDS011;23035;50.032;21.978;2023-07-28T14:29:32;9.20;;;3.17;;
37131;SDS011;23035;50.032;21.978;2023-07-28T14:39:40;9.20;;;3.35;;
37131;SDS011;23035;50.032;21.978;2023-07-28T14:44:45;4.97;;;3.13;;
37131;SDS011;23035;50.032;21.978;2023-07-28T14:54:53;7.20;;;3.15;;
37131;SDS011;23035;50.032;21.978;2023-07-28T14:59:58;5.55;;;3.00;;
37131;SDS011;23035;50.032;21.978;2023-07-28T15:05:03;5.82;;;2.78;;
37131;SDS011;23035;50.032;21.978;2023-07-28T15:10:07;4.03;;;2.67;;
37131;SDS011;23035;50.032;21.978;2023-07-28T15:15:13;5.57;;;3.00;;
37131;SDS011;23035;50.032;21.978;2023-07-28T15:20:17;4.88;;;2.97;;
37131;SDS011;23035;50.032;21.978;2023-07-28T15:25:23;4.88;;;2.95;;
37131;SDS011;23035;50.032;21.978;2023-07-28T15:30:29;7.47;;;3.10;;
37131;SDS011;23035;50.032;21.978;2023-07-28T15:35:33;5.63;;;3.05;;
37131;SDS011;23035;50.032;21.978;2023-07-28T15:40:37;4.07;;;2.90;;
37131;SDS011;23035;50.032;21.978;2023-07-28T15:45:43;3.03;;;2.63;;
37131;SDS011;23035;50.032;21.978;2023-07-28T15:50:49;4.82;;;3.00;;
37131;SDS011;23035;50.032;21.978;2023-07-28T15:55:54;3.25;;;2.95;;
37131;SDS011;23035;50.032;21.978;2023-07-28T16:00:59;4.50;;;3.13;;
37131;SDS011;23035;50.032;21.978;2023-07-28T16:06:04;3.40;;;2.90;;
37131;SDS011;23035;50.032;21.978;2023-07-28T16:11:08;4.88;;;3.03;;
37131;SDS011;23035;50.032;21.978;2023-07-28T16:16:14;7.63;;;3.35;;
37131;SDS011;23035;50.032;21.978;2023-07-28T16:21:18;3.45;;;2.97;;
37131;SDS011;23035;50.032;21.978;2023-07-28T16:26:22;6.15;;;3.03;;
37131;SDS011;23035;50.032;21.978;2023-07-28T16:31:27;5.95;;;3.22;;
37131;SDS011;23035;50.032;21.978;2023-07-28T16:36:31;3.58;;;2.80;;
37131;SDS011;23035;50.032;21.978;2023-07-28T16:41:35;3.53;;;2.92;;
37131;SDS011;23035;50.032;21.978;2023-07-28T16:46:41;5.77;;;3.00;;
37131;SDS011;23035;50.032;21.978;2023-07-28T16:51:45;5.00;;;2.90;;
37131;SDS011;23035;50.032;21.978;2023-07-28T16:56:49;5.13;;;3.00;;
37131;SDS011;23035;50.032;21.978;2023-07-28T17:01:54;5.55;;;4.00;;
37131;SDS011;23035;50.032;21.978;2023-07-28T17:06:58;8.88;;;4.35;;
37131;SDS011;23035;50.032;21.978;2023-07-28T17:12:02;4.78;;;3.22;;
37131;SDS011;23035;50.032;21.978;2023-07-28T17:17:08;5.63;;;3.13;;
37131;SDS011;23035;50.032;21.978;2023-07-28T17:22:12;5.47;;;3.10;;
37131;SDS011;23035;50.032;21.978;2023-07-28T17:27:16;3.75;;;2.92;;
37131;SDS011;23035;50.032;21.978;2023-07-28T17:32:22;7.95;;;2.92;;
37131;SDS011;23035;50.032;21.978;2023-07-28T17:37:26;4.82;;;2.80;;
37131;SDS011;23035;50.032;21.978;2023-07-28T17:42:30;5.55;;;3.08;;
37131;SDS011;23035;50.032;21.978;2023-07-28T17:47:35;4.78;;;3.22;;
37131;SDS011;23035;50.032;21.978;2023-07-28T17:52:40;9.35;;;3.17;;
37131;SDS011;23035;50.032;21.978;2023-07-28T18:02:50;6.72;;;3.83;;
37131;SDS011;23035;50.032;21.978;2023-07-28T18:07:54;8.02;;;3.47;;
37131;SDS011;23035;50.032;21.978;2023-07-28T18:13:04;5.77;;;3.27;;
37131;SDS011;23035;50.032;21.978;2023-07-28T18:18:19;5.97;;;3.40;;
37131;SDS011;23035;50.032;21.978;2023-07-28T18:23:27;7.13;;;3.20;;
37131;SDS011;23035;50.032;21.978;2023-07-28T18:28:31;6.53;;;3.53;;
37131;SDS011;23035;50.032;21.978;2023-07-28T18:33:37;9.20;;;4.22;;
37131;SDS011;23035;50.032;21.978;2023-07-28T18:38:41;6.05;;;4.20;;
37131;SDS011;23035;50.032;21.978;2023-07-28T18:43:46;7.65;;;4.15;;
37131;SDS011;23035;50.032;21.978;2023-07-28T18:48:51;6.88;;;4.20;;
37131;SDS011;23035;50.032;21.978;2023-07-28T18:53:56;6.78;;;4.10;;
37131;SDS011;23035;50.032;21.978;2023-07-28T18:59:00;6.53;;;4.15;;
37131;SDS011;23035;50.032;21.978;2023-07-28T19:04:06;6.55;;;4.45;;
37131;SDS011;23035;50.032;21.978;2023-07-28T19:09:10;11.95;;;4.07;;
37131;SDS011;23035;50.032;21.978;2023-07-28T19:14:14;5.65;;;4.15;;
37131;SDS011;23035;50.032;21.978;2023-07-28T19:19:20;5.82;;;3.85;;
37131;SDS011;23035;50.032;21.978;2023-07-28T19:24:25;9.02;;;4.97;;
37131;SDS011;23035;50.032;21.978;2023-07-28T19:29:30;9.55;;;6.00;;
37131;SDS011;23035;50.032;21.978;2023-07-28T19:34:35;11.13;;;6.05;;
37131;SDS011;23035;50.032;21.978;2023-07-28T19:39:39;9.95;;;5.18;;
37131;SDS011;23035;50.032;21.978;2023-07-28T19:44:44;9.90;;;5.25;;
37131;SDS011;23035;50.032;21.978;2023-07-28T19:49:49;6.22;;;4.45;;
37131;SDS011;23035;50.032;21.978;2023-07-28T20:00:18;7.63;;;4.25;;
37131;SDS011;23035;50.032;21.978;2023-07-28T20:05:23;6.45;;;4.10;;
37131;SDS011;23035;50.032;21.978;2023-07-28T20:10:28;6.95;;;4.68;;
37131;SDS011;23035;50.032;21.978;2023-07-28T20:15:34;6.45;;;3.63;;
37131;SDS011;23035;50.032;21.978;2023-07-28T20:20:40;7.22;;;3.65;;
37131;SDS011;23035;50.032;21.978;2023-07-28T20:30:48;6.80;;;3.95;;
37131;SDS011;23035;50.032;21.978;2023-07-28T20:35:54;6.25;;;3.88;;
37131;SDS011;23035;50.032;21.978;2023-07-28T20:46:02;7.30;;;3.80;;
37131;SDS011;23035;50.032;21.978;2023-07-28T20:51:08;6.18;;;3.60;;
37131;SDS011;23035;50.032;21.978;2023-07-28T21:01:16;8.93;;;3.70;;
37131;SDS011;23035;50.032;21.978;2023-07-28T21:06:22;4.93;;;3.85;;
37131;SDS011;23035;50.032;21.978;2023-07-28T21:16:30;6.65;;;3.45;;
37131;SDS011;23035;50.032;21.978;2023-07-28T21:21:36;7.50;;;3.50;;
37131;SDS011;23035;50.032;21.978;2023-07-28T21:26:40;6.35;;;3.40;;
37131;SDS011;23035;50.032;21.978;2023-07-28T21:31:44;4.65;;;3.30;;
37131;SDS011;23035;50.032;21.978;2023-07-28T21:36:50;4.82;;;2.95;;
37131;SDS011;23035;50.032;21.978;2023-07-28T21:41:55;5.28;;;2.80;;
37131;SDS011;23035;50.032;21.978;2023-07-28T21:46:59;4.43;;;3.40;;
37131;SDS011;23035;50.032;21.978;2023-07-28T21:52:05;6.45;;;4.07;;
37131;SDS011;23035;50.032;21.978;2023-07-28T21:57:09;5.90;;;3.45;;
37131;SDS011;23035;50.032;21.978;2023-07-28T22:02:14;5.72;;;3.55;;
37131;SDS011;23035;50.032;21.978;2023-07-28T22:07:20;4.97;;;3.60;;
37131;SDS011;23035;50.032;21.978;2023-07-28T22:12:24;3.92;;;3.15;;
37131;SDS011;23035;50.032;21.978;2023-07-28T22:17:29;5.10;;;3.38;;
37131;SDS011;23035;50.032;21.978;2023-07-28T22:22:34;3.90;;;3.28;;
37131;SDS011;23035;50.032;21.978;2023-07-28T22:32:42;6.78;;;3.47;;
37131;SDS011;23035;50.032;21.978;2023-07-28T22:37:48;3.55;;;3.10;;
37131;SDS011;23035;50.032;21.978;2023-07-28T22:42:52;8.35;;;3.38;;
37131;SDS011;23035;50.032;21.978;2023-07-28T22:47:57;5.88;;;3.03;;
37131;SDS011;23035;50.032;21.978;2023-07-28T22:53:02;4.45;;;3.15;;
37131;SDS011;23035;50.032;21.978;2023-07-28T22:58:07;5.18;;;3.22;;
37131;SDS011;23035;50.032;21.978;2023-07-28T23:03:11;3.63;;;2.97;;
37131;SDS011;23035;50.032;21.978;2023-07-28T23:08:17;4.00;;;3.20;;
37131;SDS011;23035;50.032;21.978;2023-07-28T23:13:21;4.03;;;2.80;;
37131;SDS011;23035;50.032;21.978;2023-07-28T23:18:25;4.55;;;3.17;;
37131;SDS011;23035;50.032;21.978;2023-07-28T23:23:31;5.80;;;3.15;;
37131;SDS011;23035;50.032;21.978;2023-07-28T23:28:35;6.38;;;2.90;;
37131;SDS011;23035;50.032;21.978;2023-07-28T23:33:39;6.97;;;3.50;;
37131;SDS011;23035;50.032;21.978;2023-07-28T23:38:45;5.45;;;3.50;;
37131;SDS011;23035;50.032;21.978;2023-07-28T23:43:49;5.80;;;3.20;;
37131;SDS011;23035;50.032;21.978;2023-07-28T23:48:53;4.25;;;3.10;;
37131;SDS011;23035;50.032;21.978;2023-07-28T23:53:59;3.90;;;2.90;;
37131;SDS011;23035;50.032;21.978;2023-07-28T23:59:03;9.57;;;3.40;;
